sensor_id;sensor_type;location;lat;lon;timestamp;pressure;altitude;pressure_sealevel;temperature;humidity
68994;BME280;56054;50.968;5.816;2023-09-19T00:01:25;100105.09;;;17.29;100.00
68994;BME280;56054;50.968;5.816;2023-09-19T00:04:33;100105.53;;;17.14;100.00
68994;BME280;56054;50.968;5.816;2023-09-19T00:07:40;100109.91;;;17.14;100.00
68994;BME280;56054;50.968;5.816;2023-09-19T00:10:47;100109.09;;;17.16;100.00
68994;BME280;56054;50.968;5.816;2023-09-19T00:13:54;100118.03;;;17.23;100.00
68994;BME280;56054;50.968;5.816;2023-09-19T00:17:02;100110.66;;;17.08;100.00
68994;BME280;56054;50.968;5.816;2023-09-19T00:20:09;100116.97;;;17.15;100.00
68994;BME280;56054;50.968;5.816;2023-09-19T00:23:16;100122.97;;;17.10;100.00
68994;BME280;56054;50.968;5.816;2023-09-19T00:26:23;100113.41;;;17.14;100.00
68994;BME280;56054;50.968;5.816;2023-09-19T00:29:30;100134.78;;;17.28;100.00
68994;BME280;56054;50.968;5.816;2023-09-19T00:32:37;100131.97;;;17.20;100.00
68994;BME280;56054;50.968;5.816;2023-09-19T00:35:51;100143.78;;;17.04;100.00
68994;BME280;56054;50.968;5.816;2023-09-19T00:38:59;100151.84;;;17.10;100.00
68994;BME280;56054;50.968;5.816;2023-09-19T00:42:06;100134.75;;;16.95;100.00
68994;BME280;56054;50.968;5.816;2023-09-19T00:45:15;100146.25;;;16.98;100.00
68994;BME280;56054;50.968;5.816;2023-09-19T00:48:24;100151.50;;;16.98;100.00
68994;BME280;56054;50.968;5.816;2023-09-19T00:51:32;100146.31;;;17.01;100.00
68994;BME280;56054;50.968;5.816;2023-09-19T00:54:39;100162.00;;;16.98;100.00
68994;BME280;56054;50.968;5.816;2023-09-19T00:57:46;100165.28;;;16.91;100.00
68994;BME280;56054;50.968;5.816;2023-09-19T01:00:53;100158.50;;;16.98;100.00
68994;BME280;56054;50.968;5.816;2023-09-19T01:04:00;100164.41;;;16.90;100.00
68994;BME280;56054;50.968;5.816;2023-09-19T01:07:07;100168.63;;;16.85;100.00
68994;BME280;56054;50.968;5.816;2023-09-19T01:10:16;100175.59;;;16.85;100.00
68994;BME280;56054;50.968;5.816;2023-09-19T01:13:30;100173.91;;;16.87;100.00
68994;BME280;56054;50.968;5.816;2023-09-19T01:16:58;100179.16;;;16.87;100.00
68994;BME280;56054;50.968;5.816;2023-09-19T01:31:06;100198.38;;;16.86;100.00
68994;BME280;56054;50.968;5.816;2023-09-19T01:34:15;100201.00;;;16.86;100.00
68994;BME280;56054;50.968;5.816;2023-09-19T01:37:22;100203.41;;;16.78;100.00
68994;BME280;56054;50.968;5.816;2023-09-19T01:40:29;100199.47;;;16.93;100.00
68994;BME280;56054;50.968;5.816;2023-09-19T01:43:44;100189.66;;;16.87;100.00
68994;BME280;56054;50.968;5.816;2023-09-19T01:46:54;100199.09;;;16.80;100.00
68994;BME280;56054;50.968;5.816;2023-09-19T01:50:30;100211.44;;;16.84;100.00
68994;BME280;56054;50.968;5.816;2023-09-19T01:53:59;100207.88;;;16.82;100.00
68994;BME280;56054;50.968;5.816;2023-09-19T01:57:33;100204.19;;;16.77;100.00
68994;BME280;56054;50.968;5.816;2023-09-19T02:00:42;100213.06;;;16.79;100.00
68994;BME280;56054;50.968;5.816;2023-09-19T02:03:50;100205.81;;;16.72;100.00
68994;BME280;56054;50.968;5.816;2023-09-19T02:06:57;100209.44;;;16.77;100.00
68994;BME280;56054;50.968;5.816;2023-09-19T02:10:06;100204.19;;;16.77;100.00
68994;BME280;56054;50.968;5.816;2023-09-19T02:17:24;100218.78;;;16.67;100.00
68994;BME280;56054;50.968;5.816;2023-09-19T02:20:31;100214.94;;;16.83;100.00
68994;BME280;56054;50.968;5.816;2023-09-19T02:23:38;100220.31;;;16.88;100.00
68994;BME280;56054;50.968;5.816;2023-09-19T02:26:47;100213.81;;;16.77;100.00
68994;BME280;56054;50.968;5.816;2023-09-19T02:29:54;100217.00;;;16.66;100.00
68994;BME280;56054;50.968;5.816;2023-09-19T02:33:01;100219.97;;;16.48;100.00
68994;BME280;56054;50.968;5.816;2023-09-19T02:36:08;100207.38;;;16.65;100.00
68994;BME280;56054;50.968;5.816;2023-09-19T02:39:15;100210.97;;;16.40;100.00
68994;BME280;56054;50.968;5.816;2023-09-19T02:42:22;100207.66;;;16.46;100.00
68994;BME280;56054;50.968;5.816;2023-09-19T02:45:29;100211.91;;;16.42;100.00
68994;BME280;56054;50.968;5.816;2023-09-19T02:48:36;100223.09;;;16.37;100.00
68994;BME280;56054;50.968;5.816;2023-09-19T02:51:46;100217.09;;;16.41;100.00
68994;BME280;56054;50.968;5.816;2023-09-19T02:54:53;100222.63;;;16.50;100.00
68994;BME280;56054;50.968;5.816;2023-09-19T02:58:01;100222.72;;;16.24;100.00
68994;BME280;56054;50.968;5.816;2023-09-19T03:01:12;100223.91;;;16.34;100.00
68994;BME280;56054;50.968;5.816;2023-09-19T03:04:19;100224.63;;;16.30;100.00
68994;BME280;56054;50.968;5.816;2023-09-19T03:07:26;100227.97;;;16.26;100.00
68994;BME280;56054;50.968;5.816;2023-09-19T03:10:33;100236.22;;;16.37;100.00
68994;BME280;56054;50.968;5.816;2023-09-19T03:13:40;100234.03;;;16.23;100.00
68994;BME280;56054;50.968;5.816;2023-09-19T03:16:47;100233.28;;;16.27;100.00
68994;BME280;56054;50.968;5.816;2023-09-19T03:19:54;100225.19;;;16.20;100.00
68994;BME280;56054;50.968;5.816;2023-09-19T03:23:08;100234.88;;;16.22;100.00
68994;BME280;56054;50.968;5.816;2023-09-19T03:26:15;100221.63;;;16.18;100.00
68994;BME280;56054;50.968;5.816;2023-09-19T03:29:22;100226.28;;;16.26;100.00
68994;BME280;56054;50.968;5.816;2023-09-19T03:32:29;100240.81;;;16.17;100.00
68994;BME280;56054;50.968;5.816;2023-09-19T03:35:36;100233.31;;;16.02;100.00
68994;BME280;56054;50.968;5.816;2023-09-19T03:38:43;100227.44;;;16.09;100.00
68994;BME280;56054;50.968;5.816;2023-09-19T03:41:50;100237.91;;;16.09;100.00
68994;BME280;56054;50.968;5.816;2023-09-19T03:45:33;100239.09;;;16.19;100.00
68994;BME280;56054;50.968;5.816;2023-09-19T03:48:42;100231.63;;;16.04;100.00
68994;BME280;56054;50.968;5.816;2023-09-19T03:51:48;100229.25;;;16.10;100.00
68994;BME280;56054;50.968;5.816;2023-09-19T03:54:55;100233.38;;;16.03;100.00
68994;BME280;56054;50.968;5.816;2023-09-19T03:58:03;100234.91;;;15.97;100.00
68994;BME280;56054;50.968;5.816;2023-09-19T04:01:10;100232.44;;;16.01;100.00
68994;BME280;56054;50.968;5.816;2023-09-19T04:04:17;100226.63;;;16.10;100.00
68994;BME280;56054;50.968;5.816;2023-09-19T04:07:24;100236.06;;;16.05;100.00
68994;BME280;56054;50.968;5.816;2023-09-19T04:10:31;100237.19;;;16.13;100.00
68994;BME280;56054;50.968;5.816;2023-09-19T04:13:38;100229.78;;;16.00;100.00
68994;BME280;56054;50.968;5.816;2023-09-19T04:16:45;100234.16;;;16.01;100.00
68994;BME280;56054;50.968;5.816;2023-09-19T04:19:52;100229.56;;;15.94;100.00
68994;BME280;56054;50.968;5.816;2023-09-19T04:22:59;100232.00;;;15.88;100.00
68994;BME280;56054;50.968;5.816;2023-09-19T04:26:06;100241.94;;;15.98;100.00
68994;BME280;56054;50.968;5.816;2023-09-19T04:29:13;100242.97;;;16.03;100.00
68994;BME280;56054;50.968;5.816;2023-09-19T04:32:20;100230.59;;;15.99;100.00
68994;BME280;56054;50.968;5.816;2023-09-19T04:35:27;100239.34;;;15.99;100.00
68994;BME280;56054;50.968;5.816;2023-09-19T04:38:34;100240.84;;;16.18;100.00
68994;BME280;56054;50.968;5.816;2023-09-19T04:41:41;100248.28;;;16.04;100.00
68994;BME280;56054;50.968;5.816;2023-09-19T04:44:48;100251.56;;;15.99;100.00
68994;BME280;56054;50.968;5.816;2023-09-19T04:47:55;100260.31;;;15.99;100.00
68994;BME280;56054;50.968;5.816;2023-09-19T04:51:02;100249.88;;;16.01;100.00
68994;BME280;56054;50.968;5.816;2023-09-19T04:54:09;100247.81;;;15.91;100.00
68994;BME280;56054;50.968;5.816;2023-09-19T04:57:16;100250.47;;;15.92;100.00
68994;BME280;56054;50.968;5.816;2023-09-19T05:00:23;100260.81;;;15.88;100.00
68994;BME280;56054;50.968;5.816;2023-09-19T05:03:31;100266.34;;;15.97;100.00
68994;BME280;56054;50.968;5.816;2023-09-19T05:06:37;100269.41;;;15.83;100.00
68994;BME280;56054;50.968;5.816;2023-09-19T05:09:44;100262.31;;;15.81;100.00
68994;BME280;56054;50.968;5.816;2023-09-19T05:12:54;100280.50;;;15.76;100.00
68994;BME280;56054;50.968;5.816;2023-09-19T05:16:01;100281.44;;;15.78;100.00
68994;BME280;56054;50.968;5.816;2023-09-19T05:19:08;100287.03;;;15.89;100.00
68994;BME280;56054;50.968;5.816;2023-09-19T05:22:15;100295.53;;;15.82;100.00
68994;BME280;56054;50.968;5.816;2023-09-19T05:25:22;100294.88;;;15.88;100.00
68994;BME280;56054;50.968;5.816;2023-09-19T05:32:02;100307.63;;;15.78;100.00
68994;BME280;56054;50.968;5.816;2023-09-19T05:35:09;100311.84;;;15.73;100.00
68994;BME280;56054;50.968;5.816;2023-09-19T05:38:16;100308.78;;;15.87;100.00
68994;BME280;56054;50.968;5.816;2023-09-19T05:41:23;100317.06;;;15.73;100.00
68994;BME280;56054;50.968;5.816;2023-09-19T05:44:30;100322.81;;;15.65;100.00
68994;BME280;56054;50.968;5.816;2023-09-19T05:47:42;100329.38;;;15.76;100.00
68994;BME280;56054;50.968;5.816;2023-09-19T05:50:49;100337.16;;;15.74;100.00
68994;BME280;56054;50.968;5.816;2023-09-19T05:53:56;100333.09;;;15.82;100.00
68994;BME280;56054;50.968;5.816;2023-09-19T05:57:04;100331.91;;;15.73;100.00
68994;BME280;56054;50.968;5.816;2023-09-19T06:00:12;100339.09;;;15.80;100.00
68994;BME280;56054;50.968;5.816;2023-09-19T06:03:19;100334.16;;;15.88;100.00
68994;BME280;56054;50.968;5.816;2023-09-19T06:06:26;100336.47;;;15.78;100.00
68994;BME280;56054;50.968;5.816;2023-09-19T06:09:33;100321.78;;;15.83;100.00
68994;BME280;56054;50.968;5.816;2023-09-19T06:12:41;100326.75;;;15.76;100.00
68994;BME280;56054;50.968;5.816;2023-09-19T06:15:48;100327.91;;;15.84;100.00
68994;BME280;56054;50.968;5.816;2023-09-19T06:18:55;100341.06;;;15.86;100.00
68994;BME280;56054;50.968;5.816;2023-09-19T06:22:02;100331.31;;;15.81;100.00
68994;BME280;56054;50.968;5.816;2023-09-19T06:25:10;100329.75;;;15.87;100.00
68994;BME280;56054;50.968;5.816;2023-09-19T06:28:17;100336.88;;;15.91;100.00
68994;BME280;56054;50.968;5.816;2023-09-19T06:31:24;100337.84;;;15.93;100.00
68994;BME280;56054;50.968;5.816;2023-09-19T06:34:31;100326.75;;;16.00;100.00
68994;BME280;56054;50.968;5.816;2023-09-19T06:37:39;100331.66;;;15.91;100.00
68994;BME280;56054;50.968;5.816;2023-09-19T06:40:46;100326.22;;;16.10;100.00
68994;BME280;56054;50.968;5.816;2023-09-19T06:43:53;100337.63;;;16.12;100.00
68994;BME280;56054;50.968;5.816;2023-09-19T06:47:00;100344.13;;;15.98;100.00
68994;BME280;56054;50.968;5.816;2023-09-19T06:50:07;100338.94;;;16.25;100.00
68994;BME280;56054;50.968;5.816;2023-09-19T06:53:14;100348.00;;;16.09;100.00
68994;BME280;56054;50.968;5.816;2023-09-19T06:56:21;100340.28;;;16.14;100.00
68994;BME280;56054;50.968;5.816;2023-09-19T06:59:28;100340.56;;;15.96;100.00
68994;BME280;56054;50.968;5.816;2023-09-19T07:02:35;100345.59;;;16.15;100.00
68994;BME280;56054;50.968;5.816;2023-09-19T07:05:42;100349.44;;;16.25;100.00
68994;BME280;56054;50.968;5.816;2023-09-19T07:08:49;100339.66;;;16.21;100.00
68994;BME280;56054;50.968;5.816;2023-09-19T07:11:56;100350.22;;;16.22;100.00
68994;BME280;56054;50.968;5.816;2023-09-19T07:15:04;100347.22;;;16.37;100.00
68994;BME280;56054;50.968;5.816;2023-09-19T07:18:10;100351.72;;;16.41;100.00
68994;BME280;56054;50.968;5.816;2023-09-19T07:21:17;100360.91;;;16.54;100.00
68994;BME280;56054;50.968;5.816;2023-09-19T07:24:25;100364.25;;;16.50;100.00
68994;BME280;56054;50.968;5.816;2023-09-19T07:27:31;100355.28;;;16.43;100.00
68994;BME280;56054;50.968;5.816;2023-09-19T07:30:38;100372.06;;;16.48;100.00
68994;BME280;56054;50.968;5.816;2023-09-19T07:33:45;100366.63;;;16.69;100.00
68994;BME280;56054;50.968;5.816;2023-09-19T07:36:52;100372.59;;;16.91;100.00
68994;BME280;56054;50.968;5.816;2023-09-19T07:40:00;100372.94;;;17.02;100.00
68994;BME280;56054;50.968;5.816;2023-09-19T07:43:07;100375.78;;;16.81;100.00
68994;BME280;56054;50.968;5.816;2023-09-19T07:46:14;100364.34;;;16.79;100.00
68994;BME280;56054;50.968;5.816;2023-09-19T07:49:21;100363.88;;;16.92;100.00
68994;BME280;56054;50.968;5.816;2023-09-19T07:52:29;100356.72;;;16.86;100.00
68994;BME280;56054;50.968;5.816;2023-09-19T07:55:35;100364.16;;;17.01;100.00
68994;BME280;56054;50.968;5.816;2023-09-19T07:58:42;100366.06;;;17.05;99.98
68994;BME280;56054;50.968;5.816;2023-09-19T08:01:49;100364.31;;;17.06;99.32
68994;BME280;56054;50.968;5.816;2023-09-19T08:04:56;100368.84;;;17.11;99.36
68994;BME280;56054;50.968;5.816;2023-09-19T08:08:03;100361.91;;;17.14;98.50
68994;BME280;56054;50.968;5.816;2023-09-19T08:11:10;100369.19;;;17.22;98.31
68994;BME280;56054;50.968;5.816;2023-09-19T08:14:17;100368.25;;;17.20;98.04
68994;BME280;56054;50.968;5.816;2023-09-19T08:17:24;100357.31;;;17.35;97.53
68994;BME280;56054;50.968;5.816;2023-09-19T08:20:31;100364.53;;;17.42;96.87
68994;BME280;56054;50.968;5.816;2023-09-19T08:23:38;100361.47;;;17.57;96.77
68994;BME280;56054;50.968;5.816;2023-09-19T08:26:45;100371.63;;;17.45;95.82
68994;BME280;56054;50.968;5.816;2023-09-19T08:29:53;100385.47;;;17.69;95.66
68994;BME280;56054;50.968;5.816;2023-09-19T08:33:00;100375.63;;;17.62;96.38
68994;BME280;56054;50.968;5.816;2023-09-19T08:36:10;100390.72;;;17.69;95.99
68994;BME280;56054;50.968;5.816;2023-09-19T08:39:19;100397.22;;;17.82;95.48
68994;BME280;56054;50.968;5.816;2023-09-19T08:42:25;100394.16;;;17.97;95.10
68994;BME280;56054;50.968;5.816;2023-09-19T08:45:32;100387.06;;;17.94;95.53
68994;BME280;56054;50.968;5.816;2023-09-19T08:48:45;100388.13;;;18.01;95.01
68994;BME280;56054;50.968;5.816;2023-09-19T08:52:01;100394.94;;;17.93;94.29
68994;BME280;56054;50.968;5.816;2023-09-19T08:55:13;100382.75;;;17.96;93.98
68994;BME280;56054;50.968;5.816;2023-09-19T08:58:21;100390.34;;;18.19;94.13
68994;BME280;56054;50.968;5.816;2023-09-19T09:01:37;100390.41;;;18.21;93.50
68994;BME280;56054;50.968;5.816;2023-09-19T09:04:45;100382.41;;;18.16;93.14
68994;BME280;56054;50.968;5.816;2023-09-19T09:07:53;100382.31;;;18.13;92.65
68994;BME280;56054;50.968;5.816;2023-09-19T09:11:00;100379.31;;;18.32;92.22
68994;BME280;56054;50.968;5.816;2023-09-19T09:14:07;100374.88;;;18.30;92.15
68994;BME280;56054;50.968;5.816;2023-09-19T09:17:14;100365.84;;;18.20;92.24
68994;BME280;56054;50.968;5.816;2023-09-19T09:20:21;100367.13;;;18.34;92.03
68994;BME280;56054;50.968;5.816;2023-09-19T09:23:35;100378.69;;;18.41;90.63
68994;BME280;56054;50.968;5.816;2023-09-19T09:26:42;100361.91;;;18.37;91.08
68994;BME280;56054;50.968;5.816;2023-09-19T09:29:51;100367.03;;;18.31;90.32
68994;BME280;56054;50.968;5.816;2023-09-19T09:33:17;100370.34;;;18.59;89.68
68994;BME280;56054;50.968;5.816;2023-09-19T09:36:38;100374.75;;;18.60;89.08
68994;BME280;56054;50.968;5.816;2023-09-19T09:40:04;100364.34;;;18.63;89.41
68994;BME280;56054;50.968;5.816;2023-09-19T09:43:42;100368.31;;;18.82;87.39
68994;BME280;56054;50.968;5.816;2023-09-19T09:46:49;100366.16;;;19.02;86.91
68994;BME280;56054;50.968;5.816;2023-09-19T09:49:56;100376.59;;;18.99;85.59
68994;BME280;56054;50.968;5.816;2023-09-19T09:53:03;100385.53;;;19.06;85.01
68994;BME280;56054;50.968;5.816;2023-09-19T09:56:10;100376.22;;;19.21;84.17
68994;BME280;56054;50.968;5.816;2023-09-19T09:59:17;100367.44;;;19.21;83.45
68994;BME280;56054;50.968;5.816;2023-09-19T10:02:29;100374.34;;;19.14;83.18
68994;BME280;56054;50.968;5.816;2023-09-19T10:05:43;100358.94;;;19.33;82.50
68994;BME280;56054;50.968;5.816;2023-09-19T10:09:09;100361.34;;;19.23;81.75
68994;BME280;56054;50.968;5.816;2023-09-19T10:12:18;100357.00;;;19.24;81.43
68994;BME280;56054;50.968;5.816;2023-09-19T10:15:26;100357.59;;;19.12;79.31
68994;BME280;56054;50.968;5.816;2023-09-19T10:18:36;100358.56;;;19.16;79.73
68994;BME280;56054;50.968;5.816;2023-09-19T10:21:43;100350.72;;;19.19;79.46
68994;BME280;56054;50.968;5.816;2023-09-19T10:24:53;100356.63;;;19.07;79.91
68994;BME280;56054;50.968;5.816;2023-09-19T10:28:06;100361.13;;;19.13;78.28
68994;BME280;56054;50.968;5.816;2023-09-19T10:31:18;100352.63;;;19.26;78.07
68994;BME280;56054;50.968;5.816;2023-09-19T10:34:26;100369.91;;;19.13;78.16
68994;BME280;56054;50.968;5.816;2023-09-19T10:37:34;100351.47;;;19.13;79.50
68994;BME280;56054;50.968;5.816;2023-09-19T10:40:43;100361.06;;;19.10;79.60
68994;BME280;56054;50.968;5.816;2023-09-19T10:43:50;100349.84;;;19.18;79.34
68994;BME280;56054;50.968;5.816;2023-09-19T10:47:01;100352.31;;;19.52;79.50
68994;BME280;56054;50.968;5.816;2023-09-19T10:50:09;100358.50;;;19.55;79.05
68994;BME280;56054;50.968;5.816;2023-09-19T10:53:16;100360.97;;;19.46;78.36
68994;BME280;56054;50.968;5.816;2023-09-19T10:56:29;100372.41;;;19.48;78.32
68994;BME280;56054;50.968;5.816;2023-09-19T10:59:36;100362.53;;;19.38;77.67
68994;BME280;56054;50.968;5.816;2023-09-19T11:02:43;100373.78;;;19.69;77.40
68994;BME280;56054;50.968;5.816;2023-09-19T11:09:10;100362.22;;;20.07;77.40
68994;BME280;56054;50.968;5.816;2023-09-19T11:16:03;100374.59;;;20.12;75.53
68994;BME280;56054;50.968;5.816;2023-09-19T11:19:10;100368.50;;;20.16;75.42
68994;BME280;56054;50.968;5.816;2023-09-19T11:22:17;100365.09;;;20.21;74.77
68994;BME280;56054;50.968;5.816;2023-09-19T11:28:37;100353.47;;;20.12;73.98
68994;BME280;56054;50.968;5.816;2023-09-19T11:31:44;100342.69;;;20.46;74.53
68994;BME280;56054;50.968;5.816;2023-09-19T11:34:51;100346.94;;;20.91;74.33
68994;BME280;56054;50.968;5.816;2023-09-19T11:37:59;100338.94;;;20.85;73.04
68994;BME280;56054;50.968;5.816;2023-09-19T11:41:38;100340.72;;;20.89;72.52
68994;BME280;56054;50.968;5.816;2023-09-19T11:44:45;100325.81;;;20.91;70.24
68994;BME280;56054;50.968;5.816;2023-09-19T11:47:52;100323.28;;;21.01;70.01
68994;BME280;56054;50.968;5.816;2023-09-19T11:50:59;100337.25;;;20.90;70.08
68994;BME280;56054;50.968;5.816;2023-09-19T11:54:10;100340.66;;;20.83;69.52
68994;BME280;56054;50.968;5.816;2023-09-19T11:57:21;100340.91;;;21.02;70.25
68994;BME280;56054;50.968;5.816;2023-09-19T12:00:27;100330.31;;;20.99;70.32
68994;BME280;56054;50.968;5.816;2023-09-19T12:03:35;100320.81;;;21.13;70.24
68994;BME280;56054;50.968;5.816;2023-09-19T12:06:56;100312.19;;;21.25;69.57
68994;BME280;56054;50.968;5.816;2023-09-19T12:10:05;100322.22;;;21.52;69.43
68994;BME280;56054;50.968;5.816;2023-09-19T12:13:16;100326.44;;;20.73;70.52
68994;BME280;56054;50.968;5.816;2023-09-19T12:16:24;100326.22;;;21.19;69.09
68994;BME280;56054;50.968;5.816;2023-09-19T12:19:31;100311.56;;;21.44;68.69
68994;BME280;56054;50.968;5.816;2023-09-19T12:22:45;100318.50;;;21.37;69.06
68994;BME280;56054;50.968;5.816;2023-09-19T12:25:52;100307.31;;;21.57;67.91
68994;BME280;56054;50.968;5.816;2023-09-19T12:29:00;100306.88;;;21.23;69.54
68994;BME280;56054;50.968;5.816;2023-09-19T12:32:07;100288.50;;;21.35;69.11
68994;BME280;56054;50.968;5.816;2023-09-19T12:35:33;100289.34;;;21.30;68.52
68994;BME280;56054;50.968;5.816;2023-09-19T12:38:48;100283.09;;;21.26;69.64
68994;BME280;56054;50.968;5.816;2023-09-19T12:41:54;100294.50;;;21.19;68.92
68994;BME280;56054;50.968;5.816;2023-09-19T12:45:07;100275.25;;;21.31;69.05
68994;BME280;56054;50.968;5.816;2023-09-19T12:48:22;100274.97;;;21.08;69.10
68994;BME280;56054;50.968;5.816;2023-09-19T12:51:35;100279.34;;;21.06;69.13
68994;BME280;56054;50.968;5.816;2023-09-19T12:54:42;100287.38;;;21.15;69.62
68994;BME280;56054;50.968;5.816;2023-09-19T13:01:16;100302.97;;;20.95;71.37
68994;BME280;56054;50.968;5.816;2023-09-19T13:04:23;100302.78;;;20.81;71.08
68994;BME280;56054;50.968;5.816;2023-09-19T13:07:41;100294.84;;;20.81;72.56
68994;BME280;56054;50.968;5.816;2023-09-19T13:14:27;100305.31;;;20.75;71.91
68994;BME280;56054;50.968;5.816;2023-09-19T13:17:45;100311.72;;;20.91;71.37
68994;BME280;56054;50.968;5.816;2023-09-19T13:21:08;100318.44;;;20.69;71.84
68994;BME280;56054;50.968;5.816;2023-09-19T13:24:23;100311.81;;;20.99;71.02
68994;BME280;56054;50.968;5.816;2023-09-19T13:27:30;100308.91;;;20.79;71.44
68994;BME280;56054;50.968;5.816;2023-09-19T13:30:37;100310.84;;;20.90;71.62
68994;BME280;56054;50.968;5.816;2023-09-19T13:33:48;100302.00;;;20.88;71.97
68994;BME280;56054;50.968;5.816;2023-09-19T13:36:54;100291.63;;;21.04;71.88
68994;BME280;56054;50.968;5.816;2023-09-19T13:40:01;100299.28;;;20.84;71.55
68994;BME280;56054;50.968;5.816;2023-09-19T13:43:08;100299.22;;;20.79;71.85
68994;BME280;56054;50.968;5.816;2023-09-19T13:46:15;100293.72;;;20.65;71.49
68994;BME280;56054;50.968;5.816;2023-09-19T13:49:22;100296.72;;;20.88;71.60
68994;BME280;56054;50.968;5.816;2023-09-19T13:52:30;100286.34;;;21.02;71.94
68994;BME280;56054;50.968;5.816;2023-09-19T13:55:36;100293.47;;;21.08;72.19
68994;BME280;56054;50.968;5.816;2023-09-19T13:58:43;100299.31;;;20.87;72.58
68994;BME280;56054;50.968;5.816;2023-09-19T14:01:50;100289.66;;;20.87;71.80
68994;BME280;56054;50.968;5.816;2023-09-19T14:04:57;100292.31;;;20.87;71.02
68994;BME280;56054;50.968;5.816;2023-09-19T14:08:05;100283.69;;;21.01;72.88
68994;BME280;56054;50.968;5.816;2023-09-19T14:11:11;100303.09;;;21.04;72.31
68994;BME280;56054;50.968;5.816;2023-09-19T14:14:19;100296.84;;;20.98;71.18
68994;BME280;56054;50.968;5.816;2023-09-19T14:17:26;100307.47;;;21.04;71.00
68994;BME280;56054;50.968;5.816;2023-09-19T14:20:37;100299.22;;;20.79;71.30
68994;BME280;56054;50.968;5.816;2023-09-19T14:23:44;100292.25;;;20.84;70.92
68994;BME280;56054;50.968;5.816;2023-09-19T14:26:51;100288.22;;;21.09;71.12
68994;BME280;56054;50.968;5.816;2023-09-19T14:29:58;100303.00;;;20.98;71.23
68994;BME280;56054;50.968;5.816;2023-09-19T14:33:05;100288.66;;;20.78;72.00
68994;BME280;56054;50.968;5.816;2023-09-19T14:36:12;100291.16;;;20.70;71.90
68994;BME280;56054;50.968;5.816;2023-09-19T14:39:19;100291.25;;;20.76;72.20
68994;BME280;56054;50.968;5.816;2023-09-19T14:42:26;100291.22;;;20.74;72.34
68994;BME280;56054;50.968;5.816;2023-09-19T14:45:35;100289.44;;;20.70;72.66
68994;BME280;56054;50.968;5.816;2023-09-19T14:48:42;100303.41;;;20.65;73.08
68994;BME280;56054;50.968;5.816;2023-09-19T14:51:49;100293.75;;;20.67;73.11
68994;BME280;56054;50.968;5.816;2023-09-19T14:54:56;100286.72;;;20.67;73.11
68994;BME280;56054;50.968;5.816;2023-09-19T14:58:03;100285.09;;;20.76;73.92
68994;BME280;56054;50.968;5.816;2023-09-19T15:01:12;100282.03;;;20.49;74.35
68994;BME280;56054;50.968;5.816;2023-09-19T15:04:18;100280.25;;;20.48;73.97
68994;BME280;56054;50.968;5.816;2023-09-19T15:07:25;100282.88;;;20.47;74.18
68994;BME280;56054;50.968;5.816;2023-09-19T15:10:32;100282.94;;;20.53;74.07
68994;BME280;56054;50.968;5.816;2023-09-19T15:13:40;100288.22;;;20.51;73.98
68994;BME280;56054;50.968;5.816;2023-09-19T15:16:48;100282.28;;;20.63;73.52
68994;BME280;56054;50.968;5.816;2023-09-19T15:19:54;100268.16;;;20.63;72.52
68994;BME280;56054;50.968;5.816;2023-09-19T15:23:15;100265.75;;;20.77;71.93
68994;BME280;56054;50.968;5.816;2023-09-19T15:26:22;100266.44;;;20.65;72.14
68994;BME280;56054;50.968;5.816;2023-09-19T15:29:29;100270.66;;;20.53;72.84
68994;BME280;56054;50.968;5.816;2023-09-19T15:32:36;100268.25;;;20.66;73.16
68994;BME280;56054;50.968;5.816;2023-09-19T15:35:43;100266.31;;;20.56;72.93
68994;BME280;56054;50.968;5.816;2023-09-19T15:39:00;100259.47;;;20.70;72.81
68994;BME280;56054;50.968;5.816;2023-09-19T15:42:07;100255.75;;;20.56;72.94
68994;BME280;56054;50.968;5.816;2023-09-19T15:45:14;100251.47;;;20.64;74.22
68994;BME280;56054;50.968;5.816;2023-09-19T15:48:21;100255.91;;;20.66;74.61
68994;BME280;56054;50.968;5.816;2023-09-19T15:51:29;100253.13;;;20.57;73.77
68994;BME280;56054;50.968;5.816;2023-09-19T15:54:35;100241.53;;;20.47;74.46
68994;BME280;56054;50.968;5.816;2023-09-19T15:57:42;100242.63;;;20.60;73.60
68994;BME280;56054;50.968;5.816;2023-09-19T16:00:49;100247.22;;;20.75;73.95
68994;BME280;56054;50.968;5.816;2023-09-19T16:03:56;100243.59;;;20.67;73.03
68994;BME280;56054;50.968;5.816;2023-09-19T16:07:03;100247.97;;;20.65;73.32
68994;BME280;56054;50.968;5.816;2023-09-19T16:10:10;100249.75;;;20.66;73.65
68994;BME280;56054;50.968;5.816;2023-09-19T16:13:17;100242.50;;;20.54;73.85
68994;BME280;56054;50.968;5.816;2023-09-19T16:16:26;100248.91;;;20.70;73.29
68994;BME280;56054;50.968;5.816;2023-09-19T16:19:33;100248.44;;;20.41;73.70
68994;BME280;56054;50.968;5.816;2023-09-19T16:22:40;100253.88;;;20.48;74.63
68994;BME280;56054;50.968;5.816;2023-09-19T16:25:47;100251.09;;;20.41;74.90
68994;BME280;56054;50.968;5.816;2023-09-19T16:28:56;100255.66;;;20.52;75.37
68994;BME280;56054;50.968;5.816;2023-09-19T16:32:03;100243.94;;;20.32;75.46
68994;BME280;56054;50.968;5.816;2023-09-19T16:35:10;100266.81;;;20.31;75.36
68994;BME280;56054;50.968;5.816;2023-09-19T16:38:17;100262.38;;;20.30;76.50
68994;BME280;56054;50.968;5.816;2023-09-19T16:41:24;100275.22;;;20.10;76.46
68994;BME280;56054;50.968;5.816;2023-09-19T16:44:32;100261.25;;;20.15;75.76
68994;BME280;56054;50.968;5.816;2023-09-19T16:47:39;100255.13;;;20.19;75.89
68994;BME280;56054;50.968;5.816;2023-09-19T16:50:48;100262.00;;;20.07;75.85
68994;BME280;56054;50.968;5.816;2023-09-19T16:53:56;100254.09;;;20.07;75.85
68994;BME280;56054;50.968;5.816;2023-09-19T16:57:03;100250.50;;;20.02;76.31